Time;durP1;ratioP1;P1;durP2;ratioP2;P2;SDS_P1;SDS_P2;PMS_P1;PMS_P2;Temp;Humidity;BMP_temperature;BMP_pressure;BME280_temperature;BME280_humidity;BME280_pressure;Samples;Min_cycle;Max_cycle;Signal;HPM_P1;HPM_P2
2021/11/18 00:01:51;;;;;;;8.67;6.40;;;6.00;92.60;;;;;;5058600;28;20198;-87
2021/11/18 00:04:19;;;;;;;6.67;5.97;;;6.00;93.00;;;;;;5065778;28;20232;-87
2021/11/18 00:06:48;;;;;;;7.27;6.23;;;6.10;92.90;;;;;;5067815;28;20236;-87
2021/11/18 00:09:17;;;;;;;7.10;6.03;;;6.10;92.60;;;;;;5070743;28;20245;-87
2021/11/18 00:11:44;;;;;;;8.37;6.40;;;6.10;92.60;;;;;;5065850;28;20201;-86
2021/11/18 00:14:12;;;;;;;7.93;6.13;;;6.10;92.60;;;;;;5073770;28;20220;-88
2021/11/18 00:16:39;;;;;;;6.87;6.13;;;6.10;92.60;;;;;;5073234;28;20311;-87
2021/11/18 00:19:08;;;;;;;7.90;6.57;;;6.20;92.20;;;;;;5073131;28;20221;-89
2021/11/18 00:21:37;;;;;;;7.27;5.90;;;6.20;92.10;;;;;;5062067;28;20553;-89
2021/11/18 00:24:06;;;;;;;8.43;6.60;;;6.20;92.10;;;;;;5071713;28;20223;-88
2021/11/18 00:26:37;;;;;;;6.73;6.03;;;6.10;92.20;;;;;;5070833;28;20230;-89
2021/11/18 00:29:06;;;;;;;6.83;6.07;;;6.20;92.00;;;;;;5067058;28;20629;-88
2021/11/18 00:31:34;;;;;;;7.37;6.30;;;6.20;92.00;;;;;;5072349;28;20201;-88
2021/11/18 00:34:02;;;;;;;6.80;5.97;;;6.20;91.90;;;;;;5066665;28;20228;-89
2021/11/18 00:36:30;;;;;;;6.87;5.93;;;6.30;91.90;;;;;;5062749;28;20197;-88
2021/11/18 00:38:57;;;;;;;7.37;6.50;;;6.30;91.80;;;;;;5065251;28;20226;-88
2021/11/18 00:41:24;;;;;;;7.47;6.60;;;6.10;92.10;;;;;;5063179;28;20209;-88
2021/11/18 00:43:53;;;;;;;7.27;6.53;;;6.10;92.20;;;;;;5050546;28;20229;-88
2021/11/18 00:46:20;;;;;;;7.97;6.60;;;6.10;92.20;;;;;;5068385;28;20206;-87
2021/11/18 00:48:47;;;;;;;7.73;6.63;;;6.00;92.10;;;;;;5065505;28;20321;-88
2021/11/18 00:51:16;;;;;;;8.00;6.70;;;5.90;92.40;;;;;;5067098;28;20248;-88
2021/11/18 00:53:46;;;;;;;8.00;6.70;;;5.80;92.90;;;;;;5062430;28;20591;-86
2021/11/18 00:56:13;;;;;;;7.00;6.03;;;5.80;93.10;;;;;;5073244;28;20201;-88
2021/11/18 00:58:40;;;;;;;8.63;6.67;;;5.80;93.30;;;;;;5064222;28;20226;-88
2021/11/18 01:01:09;;;;;;;8.03;6.90;;;5.80;93.30;;;;;;5067839;28;20205;-88
2021/11/18 01:03:36;;;;;;;8.50;6.87;;;5.80;93.20;;;;;;5069727;28;20232;-88
2021/11/18 01:06:03;;;;;;;8.17;6.27;;;5.80;93.10;;;;;;5076990;28;20207;-88
2021/11/18 01:08:31;;;;;;;7.80;7.00;;;5.90;93.30;;;;;;5070138;28;20233;-88
2021/11/18 01:11:01;;;;;;;8.27;7.10;;;5.90;93.00;;;;;;5070996;28;20676;-88
2021/11/18 01:13:30;;;;;;;7.83;6.80;;;5.80;93.10;;;;;;5069282;28;20228;-88
2021/11/18 01:15:58;;;;;;;7.80;6.77;;;5.80;93.20;;;;;;5063811;28;20213;-88
2021/11/18 01:18:26;;;;;;;7.70;6.87;;;5.90;93.10;;;;;;5062641;28;20229;-88
2021/11/18 01:20:54;;;;;;;9.50;6.63;;;5.90;93.10;;;;;;5066745;28;20212;-88
2021/11/18 01:23:25;;;;;;;8.90;6.53;;;5.90;93.20;;;;;;5064733;28;20234;-88
2021/11/18 01:25:52;;;;;;;8.20;7.27;;;6.00;92.80;;;;;;5066509;28;20203;-88
2021/11/18 01:28:19;;;;;;;8.27;7.00;;;6.00;92.80;;;;;;5063229;28;20233;-88
2021/11/18 01:30:46;;;;;;;7.90;7.07;;;6.00;92.90;;;;;;5061757;28;20202;-88
2021/11/18 01:33:16;;;;;;;9.03;6.67;;;6.00;92.90;;;;;;5067374;28;20320;-88
2021/11/18 01:35:47;;;;;;;7.27;6.50;;;6.10;92.50;;;;;;5055372;28;20200;-87
2021/11/18 01:38:15;;;;;;;9.03;7.03;;;6.10;92.40;;;;;;5060859;28;20242;-88
2021/11/18 01:40:48;;;;;;;10.03;6.87;;;6.10;92.50;;;;;;5064263;28;20197;-88
2021/11/18 01:43:16;;;;;;;8.00;6.50;;;6.10;92.50;;;;;;5059808;28;20221;-88
2021/11/18 01:45:43;;;;;;;8.57;6.70;;;6.10;92.40;;;;;;5065080;28;20205;-88
2021/11/18 01:48:11;;;;;;;8.50;7.10;;;6.20;92.50;;;;;;5064465;28;20227;-88
2021/11/18 01:50:41;;;;;;;9.27;7.23;;;6.10;92.40;;;;;;5063119;28;20226;-88
2021/11/18 01:53:14;;;;;;;9.23;7.73;;;6.10;92.50;;;;;;5056176;28;20232;-88
2021/11/18 01:55:44;;;;;;;8.80;7.10;;;6.00;92.70;;;;;;5061273;28;20649;-88
2021/11/18 01:58:12;;;;;;;8.27;7.30;;;6.10;92.90;;;;;;5056406;28;20692;-88
2021/11/18 02:00:42;;;;;;;7.53;6.30;;;6.10;92.60;;;;;;5061654;28;20213;-88
2021/11/18 02:03:10;;;;;;;7.87;7.07;;;6.10;92.60;;;;;;5059709;28;20736;-88
2021/11/18 02:05:45;;;;;;;9.03;7.00;;;6.10;92.40;;;;;;5060317;28;20200;-88
2021/11/18 02:08:18;;;;;;;7.63;6.83;;;6.20;92.60;;;;;;5057822;28;20231;-88
2021/11/18 02:10:49;;;;;;;8.07;7.23;;;6.20;92.50;;;;;;5061374;28;20193;-88
2021/11/18 02:13:18;;;;;;;8.33;7.10;;;6.30;92.40;;;;;;5061359;28;20658;-88
2021/11/18 02:15:48;;;;;;;9.17;7.00;;;6.30;92.20;;;;;;5064569;28;20201;-90
2021/11/18 02:18:17;;;;;;;8.07;7.27;;;6.30;92.20;;;;;;5060004;28;20692;-88
2021/11/18 02:20:47;;;;;;;8.97;6.70;;;6.30;92.10;;;;;;5062176;28;20204;-88
2021/11/18 02:23:19;;;;;;;8.30;7.10;;;6.30;92.20;;;;;;5058779;28;20236;-88
2021/11/18 02:25:48;;;;;;;8.63;7.40;;;6.30;92.30;;;;;;5058816;28;20198;-89
2021/11/18 02:28:16;;;;;;;8.13;6.60;;;6.20;92.30;;;;;;5062555;28;20234;-88
2021/11/18 02:30:43;;;;;;;7.47;6.73;;;6.20;92.50;;;;;;5069534;28;20198;-88
2021/11/18 02:33:10;;;;;;;9.23;7.67;;;6.20;92.50;;;;;;5066165;28;20216;-88
2021/11/18 02:35:40;;;;;;;9.10;7.53;;;6.10;92.60;;;;;;5057411;28;20206;-88
2021/11/18 02:38:09;;;;;;;9.87;7.80;;;6.00;92.80;;;;;;5062988;28;20201;-88
2021/11/18 02:40:37;;;;;;;8.07;7.27;;;6.10;92.70;;;;;;5062847;28;20201;-88
2021/11/18 02:43:06;;;;;;;8.50;7.30;;;6.10;93.10;;;;;;5068606;28;20258;-88
2021/11/18 02:45:36;;;;;;;8.70;7.50;;;6.00;92.70;;;;;;5060147;28;20200;-88
2021/11/18 02:48:04;;;;;;;8.40;7.50;;;6.00;93.20;;;;;;5071036;28;20586;-88
2021/11/18 02:50:35;;;;;;;11.00;7.77;;;6.00;93.50;;;;;;5066990;28;20237;-88
2021/11/18 02:53:03;;;;;;;11.33;7.97;;;6.10;93.30;;;;;;5070243;28;20194;-88
2021/11/18 02:55:34;;;;;;;8.40;7.13;;;6.20;93.20;;;;;;5076494;28;20232;-87
2021/11/18 02:58:01;;;;;;;8.50;7.60;;;6.20;93.00;;;;;;5073432;28;20219;-87
2021/11/18 03:00:32;;;;;;;8.97;7.73;;;6.20;92.90;;;;;;5061711;28;20206;-89
2021/11/18 03:02:59;;;;;;;8.53;7.20;;;6.30;92.70;;;;;;5061229;28;20207;-87
2021/11/18 03:05:27;;;;;;;9.23;7.30;;;6.30;92.70;;;;;;5067388;28;20210;-87
2021/11/18 03:07:57;;;;;;;8.13;7.33;;;6.30;92.70;;;;;;5071257;28;20705;-87
2021/11/18 03:10:27;;;;;;;7.50;6.63;;;6.20;93.10;;;;;;5063591;28;20270;-89
2021/11/18 03:12:55;;;;;;;8.90;7.07;;;6.20;93.30;;;;;;5070084;28;20213;-87
2021/11/18 03:15:24;;;;;;;11.00;7.60;;;6.10;93.40;;;;;;5065024;28;20239;-87
2021/11/18 03:17:51;;;;;;;9.07;7.40;;;6.20;93.40;;;;;;5073061;28;20233;-89
2021/11/18 03:20:21;;;;;;;8.83;7.67;;;6.20;93.30;;;;;;5062240;28;20227;-89
2021/11/18 03:22:49;;;;;;;8.40;7.17;;;6.20;93.30;;;;;;5061331;28;20194;-87
2021/11/18 03:25:18;;;;;;;9.00;7.53;;;6.20;93.10;;;;;;5058972;28;20247;-89
2021/11/18 03:27:45;;;;;;;9.43;8.10;;;6.20;93.10;;;;;;5060151;28;20220;-87
2021/11/18 03:30:15;;;;;;;9.50;7.70;;;6.10;93.20;;;;;;5070519;28;20747;-87
2021/11/18 03:32:43;;;;;;;8.60;7.47;;;6.10;93.40;;;;;;5063047;28;20193;-89
2021/11/18 03:35:10;;;;;;;8.07;7.13;;;6.10;93.40;;;;;;5063441;28;20247;-87
2021/11/18 03:37:37;;;;;;;8.93;7.77;;;6.10;93.50;;;;;;5074591;28;20207;-87
2021/11/18 03:40:06;;;;;;;10.87;7.57;;;6.20;93.40;;;;;;5069563;28;20224;-89
2021/11/18 03:42:33;;;;;;;9.47;7.43;;;6.20;92.80;;;;;;5069624;28;20205;-89
2021/11/18 03:45:00;;;;;;;8.70;7.13;;;6.30;92.70;;;;;;5064881;28;20233;-89
2021/11/18 03:47:28;;;;;;;8.60;7.70;;;6.30;92.50;;;;;;5061666;28;20748;-89
2021/11/18 03:49:55;;;;;;;8.70;7.80;;;6.30;92.40;;;;;;5071901;28;20221;-89
2021/11/18 03:52:23;;;;;;;8.23;7.33;;;6.30;92.70;;;;;;5067051;28;20208;-89
2021/11/18 03:54:50;;;;;;;9.37;7.67;;;6.30;92.70;;;;;;5060849;28;20225;-89
2021/11/18 03:57:19;;;;;;;8.57;7.67;;;6.30;92.50;;;;;;5068139;28;20222;-88
2021/11/18 03:59:48;;;;;;;9.80;7.10;;;6.30;92.50;;;;;;5070121;28;20308;-88
2021/11/18 04:02:17;;;;;;;7.37;6.67;;;6.40;92.50;;;;;;5071866;28;20748;-88
2021/11/18 04:04:47;;;;;;;8.37;7.47;;;6.40;92.70;;;;;;5069047;28;20307;-88
2021/11/18 04:07:15;;;;;;;8.77;7.17;;;6.30;92.60;;;;;;5067508;28;20208;-88
2021/11/18 04:09:43;;;;;;;11.00;7.87;;;6.40;92.70;;;;;;5064539;28;20217;-88
2021/11/18 04:12:12;;;;;;;9.60;7.97;;;6.40;92.50;;;;;;5067665;28;20206;-88
2021/11/18 04:14:40;;;;;;;7.97;7.17;;;6.50;92.30;;;;;;5066380;28;20226;-89
2021/11/18 04:17:09;;;;;;;7.93;7.13;;;6.50;92.40;;;;;;5072646;28;20229;-89
2021/11/18 04:19:36;;;;;;;8.73;7.83;;;6.50;92.50;;;;;;5068584;28;20278;-88
2021/11/18 04:22:05;;;;;;;8.60;7.67;;;6.40;92.30;;;;;;5068319;28;20660;-88
2021/11/18 04:24:33;;;;;;;10.13;7.90;;;6.30;92.60;;;;;;5069246;28;20290;-88
2021/11/18 04:27:00;;;;;;;9.40;7.50;;;6.40;92.50;;;;;;5063882;28;20556;-88
2021/11/18 04:29:31;;;;;;;8.90;7.57;;;6.40;92.50;;;;;;5068082;28;20697;-89
2021/11/18 04:32:01;;;;;;;9.40;7.90;;;6.40;92.50;;;;;;5069286;28;20198;-88
2021/11/18 04:34:28;;;;;;;8.37;7.40;;;6.30;92.60;;;;;;5060934;28;20623;-88
2021/11/18 04:36:55;;;;;;;11.10;7.90;;;6.30;93.00;;;;;;5063132;28;20292;-88
2021/11/18 04:39:24;;;;;;;8.83;7.93;;;6.30;93.10;;;;;;5055336;28;20222;-88
2021/11/18 04:41:51;;;;;;;9.33;7.77;;;6.30;93.10;;;;;;5058616;28;20201;-88
2021/11/18 04:44:19;;;;;;;8.00;7.20;;;6.30;92.90;;;;;;5066105;28;20810;-88
2021/11/18 04:46:46;;;;;;;8.93;8.00;;;6.30;93.20;;;;;;5061512;28;20258;-88
2021/11/18 04:49:14;;;;;;;9.23;8.13;;;6.30;93.20;;;;;;5069636;28;20229;-88
2021/11/18 04:51:41;;;;;;;9.17;7.17;;;6.40;92.80;;;;;;5068971;28;20384;-88
2021/11/18 04:54:09;;;;;;;9.30;7.67;;;6.40;92.90;;;;;;5069357;28;20239;-88
2021/11/18 04:56:38;;;;;;;8.53;7.47;;;6.40;92.70;;;;;;5064626;28;20198;-88
2021/11/18 04:59:06;;;;;;;8.60;7.60;;;6.40;92.90;;;;;;5067472;28;20308;-88
2021/11/18 05:01:34;;;;;;;8.73;7.83;;;6.30;93.10;;;;;;5070213;28;20208;-88
2021/11/18 05:04:01;;;;;;;9.40;7.43;;;6.30;93.30;;;;;;5066107;28;20229;-89
2021/11/18 05:06:29;;;;;;;9.83;8.37;;;6.30;93.40;;;;;;5065344;28;20206;-88
2021/11/18 05:08:56;;;;;;;9.67;7.57;;;6.30;93.40;;;;;;5060428;28;20240;-88
2021/11/18 05:11:23;;;;;;;9.47;7.60;;;6.30;93.50;;;;;;5067824;28;20197;-88
2021/11/18 05:13:51;;;;;;;9.43;7.80;;;6.40;93.50;;;;;;5068661;28;20755;-89
2021/11/18 05:16:19;;;;;;;9.30;7.93;;;6.30;93.40;;;;;;5061705;28;20277;-88
2021/11/18 05:18:47;;;;;;;9.77;8.07;;;6.30;93.60;;;;;;5067884;28;20225;-88
2021/11/18 05:21:17;;;;;;;9.00;7.70;;;6.30;93.70;;;;;;5068300;28;20201;-88
2021/11/18 05:23:45;;;;;;;9.03;7.50;;;6.40;93.30;;;;;;5070073;28;20232;-89
2021/11/18 05:26:14;;;;;;;8.93;7.73;;;6.40;93.30;;;;;;5060376;28;20202;-88
2021/11/18 05:28:42;;;;;;;9.63;7.73;;;6.40;93.20;;;;;;5059840;28;20641;-89
2021/11/18 05:31:12;;;;;;;10.60;8.33;;;6.40;93.10;;;;;;5067250;28;20197;-88
2021/11/18 05:33:39;;;;;;;9.30;8.23;;;6.40;93.10;;;;;;5064386;28;20252;-88
2021/11/18 05:36:06;;;;;;;9.53;8.30;;;6.40;93.30;;;;;;5068464;28;20199;-89
2021/11/18 05:38:34;;;;;;;9.40;8.27;;;6.30;93.60;;;;;;5066347;28;20358;-89
2021/11/18 05:41:02;;;;;;;10.63;8.90;;;6.30;93.70;;;;;;5068013;28;20232;-89
2021/11/18 05:43:35;;;;;;;10.57;7.90;;;6.30;93.90;;;;;;5058789;28;20225;-89
2021/11/18 05:46:03;;;;;;;10.13;8.37;;;6.30;93.70;;;;;;5065097;28;20205;-89
2021/11/18 05:48:32;;;;;;;8.47;7.57;;;6.30;93.50;;;;;;5066093;28;20233;-89
2021/11/18 05:51:00;;;;;;;9.53;8.33;;;6.30;93.40;;;;;;5069239;28;20229;-90
2021/11/18 05:53:30;;;;;;;11.37;7.83;;;6.30;93.40;;;;;;5068676;28;20222;-89
2021/11/18 05:55:59;;;;;;;10.10;8.03;;;6.30;93.40;;;;;;5061510;28;20197;-89
2021/11/18 05:58:26;;;;;;;10.20;8.60;;;6.40;93.30;;;;;;5064608;28;20233;-89
2021/11/18 06:00:54;;;;;;;10.07;8.77;;;6.40;93.10;;;;;;5058612;28;20204;-89
2021/11/18 06:03:21;;;;;;;9.40;8.00;;;6.40;92.90;;;;;;5068203;28;20269;-89
2021/11/18 06:05:50;;;;;;;10.77;8.23;;;6.30;93.00;;;;;;5068883;28;20204;-89
2021/11/18 06:08:17;;;;;;;9.90;8.50;;;6.30;92.90;;;;;;5065018;28;20248;-89
2021/11/18 06:10:45;;;;;;;9.27;8.17;;;6.20;93.20;;;;;;5060013;28;20194;-89
2021/11/18 06:13:12;;;;;;;9.33;8.33;;;6.20;92.90;;;;;;5064359;28;20293;-89
2021/11/18 06:15:40;;;;;;;10.70;8.30;;;6.30;93.00;;;;;;5060842;28;20315;-89
2021/11/18 06:18:08;;;;;;;9.37;8.00;;;6.30;92.80;;;;;;5066320;28;20212;-89
2021/11/18 06:20:35;;;;;;;9.67;7.90;;;6.20;93.10;;;;;;5072628;28;20197;-89
2021/11/18 06:23:05;;;;;;;9.47;8.30;;;6.20;93.00;;;;;;5062530;28;20291;-89
2021/11/18 06:25:33;;;;;;;9.10;7.90;;;6.10;93.20;;;;;;5062420;28;20201;-90
2021/11/18 06:27:59;;;;;;;9.00;8.07;;;6.20;93.10;;;;;;5068599;28;20623;-89
2021/11/18 06:30:30;;;;;;;8.93;8.00;;;6.20;93.20;;;;;;5070960;28;20204;-89
2021/11/18 06:32:58;;;;;;;10.53;8.93;;;6.30;93.30;;;;;;5066238;28;20277;-90
2021/11/18 06:35:26;;;;;;;9.73;7.90;;;6.20;93.30;;;;;;5067656;28;20652;-89
2021/11/18 06:37:57;;;;;;;9.57;7.90;;;6.20;93.10;;;;;;5059507;28;20193;-89
2021/11/18 06:40:27;;;;;;;9.53;7.80;;;6.40;93.60;;;;;;5063630;28;20232;-89
2021/11/18 06:42:54;;;;;;;8.73;7.70;;;6.70;94.40;;;;;;5066060;28;20212;-90
2021/11/18 06:45:24;;;;;;;10.17;8.10;;;6.80;92.40;;;;;;5067703;28;20879;-89
2021/11/18 06:47:51;;;;;;;9.27;8.27;;;6.80;92.80;;;;;;5062188;28;20236;-89
2021/11/18 06:50:18;;;;;;;10.17;8.00;;;6.90;92.70;;;;;;5066332;28;20597;-89
2021/11/18 06:52:48;;;;;;;9.77;7.90;;;6.90;92.60;;;;;;5065831;28;20281;-89
2021/11/18 06:55:17;;;;;;;10.10;8.53;;;6.70;92.10;;;;;;5069454;28;20242;-89
2021/11/18 06:57:49;;;;;;;9.90;7.93;;;6.80;93.00;;;;;;5070086;28;20197;-89
2021/11/18 07:00:18;;;;;;;11.87;8.53;;;7.00;93.00;;;;;;5060697;28;20275;-88
2021/11/18 07:02:46;;;;;;;10.00;7.45;;;7.00;91.70;;;;;;5066361;28;20272;-90
2021/11/18 07:05:13;;;;;;;10.70;7.83;;;7.10;92.60;;;;;;5068408;28;20221;-87
2021/11/18 07:07:41;;;;;;;8.87;7.70;;;7.20;90.80;;;;;;5059840;28;20201;-89
2021/11/18 07:10:10;;;;;;;9.73;8.03;;;6.90;91.40;;;;;;5067572;28;20229;-88
2021/11/18 07:12:38;;;;;;;8.77;7.87;;;7.20;91.10;;;;;;5069130;28;20205;-91
2021/11/18 07:15:09;;;;;;;8.70;7.47;;;7.10;90.40;;;;;;5064018;28;20339;-90
2021/11/18 07:17:48;;;;;;;9.97;7.97;;;6.90;90.40;;;;;;5064522;28;20193;-91
2021/11/18 07:20:16;;;;;;;10.87;7.60;;;7.00;91.30;;;;;;5066985;28;20221;-90
2021/11/18 07:22:42;;;;;;;9.48;8.00;;;7.10;91.00;;;;;;5070395;28;20289;-90
2021/11/18 07:25:13;;;;;;;13.77;7.70;;;7.00;90.70;;;;;;5069833;28;20225;-89
2021/11/18 07:27:40;;;;;;;8.68;7.78;;;6.90;91.50;;;;;;5066510;28;20196;-90
2021/11/18 07:30:10;;;;;;;10.17;7.80;;;6.90;91.60;;;;;;5066628;28;20228;-88
2021/11/18 07:32:37;;;;;;;7.93;7.10;;;7.00;91.30;;;;;;5056660;28;20204;-90
2021/11/18 07:35:04;;;;;;;9.93;7.83;;;7.00;92.10;;;;;;5064641;28;20221;-90
2021/11/18 07:37:42;;;;;;;10.55;7.63;;;7.10;90.80;;;;;;5066846;28;20240;-91
2021/11/18 07:40:13;;;;;;;9.73;7.90;;;7.20;90.70;;;;;;5056999;28;20316;-90
2021/11/18 07:42:45;;;;;;;10.75;7.55;;;7.40;90.10;;;;;;5068864;28;20208;-92
2021/11/18 07:47:56;;;;;;;8.95;7.28;;;6.90;90.00;;;;;;5069127;28;20690;-91
2021/11/18 07:50:23;;;;;;;8.17;7.23;;;6.90;91.40;;;;;;5058525;28;20294;-90
2021/11/18 07:52:50;;;;;;;8.98;7.47;;;7.00;91.00;;;;;;5067259;28;20755;-89
2021/11/18 07:55:19;;;;;;;8.13;7.32;;;7.10;91.30;;;;;;5077479;28;20219;-89
2021/11/18 07:57:47;;;;;;;8.93;7.55;;;7.20;90.60;;;;;;5067019;28;20292;-89
2021/11/18 08:00:18;;;;;;;9.30;7.60;;;7.20;90.90;;;;;;5070030;28;20218;-89
2021/11/18 08:02:45;;;;;;;9.13;7.03;;;7.50;90.10;;;;;;5079324;28;20268;-90
2021/11/18 08:05:13;;;;;;;8.65;7.53;;;7.70;90.20;;;;;;5076207;28;20221;-88
2021/11/18 08:07:42;;;;;;;9.55;6.95;;;7.60;90.00;;;;;;5074634;28;20193;-89
2021/11/18 08:10:11;;;;;;;8.32;7.18;;;7.40;89.30;;;;;;5074571;28;20286;-90
2021/11/18 08:12:38;;;;;;;10.57;7.88;;;7.40;90.10;;;;;;5079244;28;20569;-90
2021/11/18 08:15:08;;;;;;;8.82;6.82;;;7.20;90.10;;;;;;5072631;28;20232;-91
2021/11/18 08:17:36;;;;;;;8.57;6.70;;;7.40;90.10;;;;;;5072974;28;20202;-88
2021/11/18 08:20:03;;;;;;;9.55;7.20;;;7.70;87.40;;;;;;5071195;28;21492;-89
2021/11/18 08:22:30;;;;;;;9.30;6.65;;;7.70;88.00;;;;;;5077010;28;20296;-90
2021/11/18 08:24:58;;;;;;;8.10;6.78;;;8.00;87.80;;;;;;5078611;28;20316;-89
2021/11/18 08:27:25;;;;;;;8.35;6.68;;;8.00;86.60;;;;;;5075066;28;20267;-91
2021/11/18 08:29:52;;;;;;;7.85;7.03;;;8.10;85.30;;;;;;5071562;28;20217;-87
2021/11/18 08:32:20;;;;;;;8.27;6.57;;;8.10;85.90;;;;;;5076995;28;20239;-90
2021/11/18 08:37:31;;;;;;;7.55;6.15;;;8.20;84.80;;;;;;5074402;28;20280;-88
2021/11/18 08:39:58;;;;;;;8.43;6.20;;;8.10;84.80;;;;;;5077529;28;21102;-90
2021/11/18 08:42:27;;;;;;;7.68;6.22;;;8.00;85.50;;;;;;5078620;28;20197;-88
2021/11/18 08:44:55;;;;;;;6.93;6.22;;;8.20;85.10;;;;;;5060939;28;20217;-92
2021/11/18 08:47:23;;;;;;;7.38;5.93;;;8.30;82.10;;;;;;5076300;28;20573;-90
2021/11/18 08:49:52;;;;;;;6.63;5.95;;;8.30;82.80;;;;;;5077224;28;20255;-88
2021/11/18 08:52:23;;;;;;;6.55;5.72;;;8.30;84.10;;;;;;5079019;28;20237;-89
2021/11/18 08:54:53;;;;;;;9.57;6.05;;;8.40;83.60;;;;;;5078394;28;20228;-91
2021/11/18 08:57:22;;;;;;;9.35;6.10;;;8.40;81.90;;;;;;5074875;28;20281;-91
2021/11/18 08:59:50;;;;;;;7.18;5.82;;;8.20;83.10;;;;;;5078037;28;20288;-89
2021/11/18 09:02:20;;;;;;;6.85;5.65;;;8.20;83.20;;;;;;5069656;28;20217;-91
2021/11/18 09:07:30;;;;;;;10.88;5.85;;;8.30;82.60;;;;;;5058145;28;20276;-91
2021/11/18 09:09:58;;;;;;;7.13;6.25;;;8.20;83.70;;;;;;5058258;28;20303;-91
2021/11/18 09:12:26;;;;;;;7.85;5.88;;;8.20;83.70;;;;;;5058388;28;20197;-91
2021/11/18 09:14:53;;;;;;;8.32;5.78;;;8.40;83.50;;;;;;5057397;28;20241;-91
2021/11/18 09:17:21;;;;;;;7.78;5.85;;;8.30;82.20;;;;;;5075536;28;20573;-91
2021/11/18 09:19:48;;;;;;;8.73;6.15;;;8.30;82.70;;;;;;5073587;28;20692;-91
2021/11/18 09:22:15;;;;;;;6.65;5.63;;;8.20;82.50;;;;;;5073574;28;20299;-89
2021/11/18 09:27:50;;;;;;;7.85;6.20;;;8.20;81.50;;;;;;5073244;28;20652;-90
2021/11/18 09:30:19;;;;;;;7.25;5.70;;;8.00;83.60;;;;;;5070752;28;20236;-90
2021/11/18 09:32:47;;;;;;;10.15;5.95;;;8.10;84.50;;;;;;5070894;28;20204;-90
2021/11/18 09:35:18;;;;;;;7.30;5.35;;;8.20;84.50;;;;;;5065317;28;20235;-90
2021/11/18 09:37:45;;;;;;;6.25;5.43;;;8.50;84.10;;;;;;5069044;28;20664;-90
2021/11/18 09:40:19;;;;;;;7.10;5.93;;;8.80;81.40;;;;;;5066309;28;20228;-90
2021/11/18 09:43:07;;;;;;;7.75;5.75;;;8.80;80.00;;;;;;5071350;28;20201;-90
2021/11/18 09:45:39;;;;;;;7.55;6.35;;;8.90;78.60;;;;;;5067065;28;20661;-90
2021/11/18 09:48:40;;;;;;;6.97;5.47;;;8.80;79.30;;;;;;5065804;28;20199;-90
2021/11/18 09:51:20;;;;;;;6.93;5.90;;;8.90;79.10;;;;;;5064452;28;20229;-90
2021/11/18 09:54:22;;;;;;;7.40;5.82;;;9.00;79.00;;;;;;5064977;28;20300;-91
2021/11/18 09:57:09;;;;;;;6.85;6.15;;;9.30;77.10;;;;;;5067152;28;20204;-91
2021/11/18 09:59:44;;;;;;;7.30;6.40;;;9.60;76.20;;;;;;5066597;28;20224;-93
2021/11/18 10:02:39;;;;;;;8.13;6.13;;;9.50;75.80;;;;;;5052873;28;20205;-93
2021/11/18 10:17:18;;;;;;;5.95;5.35;;;10.20;66.50;;;;;;5084176;28;20200;-94
2021/11/18 10:19:48;;;;;;;7.15;5.15;;;10.00;68.60;;;;;;5078525;28;20228;-93
2021/11/18 10:37:17;;;;;;;6.68;5.80;;;10.40;63.30;;;;;;5071006;28;20196;-93
2021/11/18 11:00:27;;;;;;;19.63;13.27;;;10.30;64.70;;;;;;5034437;28;20210;-92
2021/11/18 11:09:22;;;;;;;2.83;2.33;;;10.40;61.00;;;;;;5065265;28;20217;-92
2021/11/18 11:15:17;;;;;;;2.42;2.22;;;10.40;60.90;;;;;;5046929;28;20236;-91
2021/11/18 11:25:22;;;;;;;1.17;1.10;;;10.50;57.90;;;;;;4957166;28;20706;-91
2021/11/18 11:29:08;;;;;;;1.40;1.30;;;10.50;58.40;;;;;;4967011;28;20200;-91
2021/11/18 11:32:10;;;;;;;1.80;1.70;;;10.40;58.40;;;;;;4979564;28;20216;-91
2021/11/18 11:35:10;;;;;;;1.83;1.65;;;10.40;57.90;;;;;;4978559;28;20228;-90
2021/11/18 11:38:28;;;;;;;2.22;1.95;;;10.40;59.60;;;;;;5050606;28;20193;-89
2021/11/18 11:41:10;;;;;;;4.32;2.40;;;10.50;59.50;;;;;;5057101;28;20699;-92
2021/11/18 11:47:04;;;;;;;2.60;2.40;;;10.40;61.50;;;;;;5072099;28;20248;-92
2021/11/18 11:49:40;;;;;;;2.10;1.95;;;10.50;60.10;;;;;;5076964;28;20229;-92
2021/11/18 11:55:44;;;;;;;2.20;2.00;;;10.60;57.90;;;;;;5068947;28;20193;-93
2021/11/18 11:58:26;;;;;;;1.98;1.85;;;10.30;58.10;;;;;;5079605;28;20567;-91
2021/11/18 12:05:29;;;;;;;1.60;1.50;;;10.30;58.60;;;;;;5088468;28;20273;-91
2021/11/18 12:08:01;;;;;;;1.88;1.65;;;10.20;58.70;;;;;;5091947;28;20287;-89
2021/11/18 12:10:32;;;;;;;2.05;1.88;;;10.40;58.40;;;;;;5075794;28;20237;-91
2021/11/18 13:10:19;;;;;;;2.53;2.33;;;9.90;65.20;;;;;;5018721;28;20207;-93
2021/11/18 13:13:36;;;;;;;5.13;3.00;;;9.90;63.80;;;;;;5028251;28;20245;-93
2021/11/18 13:29:11;;;;;;;3.78;2.25;;;9.90;64.70;;;;;;5001443;28;20229;-94
2021/11/18 13:32:26;;;;;;;3.58;2.38;;;9.90;64.70;;;;;;5073178;28;20288;-92
2021/11/18 13:44:01;;;;;;;3.60;2.10;;;9.90;62.30;;;;;;5089088;28;20198;-92
2021/11/18 13:49:44;;;;;;;3.28;2.97;;;10.00;61.60;;;;;;5256290;22;20229;-92
2021/11/18 13:52:22;;;;;;;3.60;2.70;;;10.10;59.60;;;;;;5071569;28;20241;-93
2021/11/18 13:54:54;;;;;;;2.47;2.28;;;10.10;59.10;;;;;;5063343;28;20257;-92
2021/11/18 14:00:19;;;;;;;3.35;2.50;;;10.00;60.20;;;;;;5062720;28;20218;-92
2021/11/18 14:03:09;;;;;;;3.00;2.70;;;9.90;63.20;;;;;;5067331;28;20697;-93
2021/11/18 14:05:45;;;;;;;3.10;2.80;;;10.10;61.00;;;;;;5014487;28;20273;-90
2021/11/18 14:17:57;;;;;;;4.13;3.75;;;10.00;61.50;;;;;;5002679;28;20208;-93
2021/11/18 14:21:04;;;;;;;3.88;3.15;;;9.80;62.90;;;;;;5054167;28;20312;-92
2021/11/18 14:23:35;;;;;;;3.80;3.42;;;9.80;63.30;;;;;;5048478;28;20771;-91
2021/11/18 14:26:38;;;;;;;4.97;3.15;;;9.70;65.10;;;;;;5061391;28;20688;-93
2021/11/18 14:29:51;;;;;;;4.20;3.72;;;9.70;66.10;;;;;;5043618;28;20239;-92
2021/11/18 14:32:43;;;;;;;4.43;3.50;;;9.70;67.10;;;;;;5051603;28;20194;-93
2021/11/18 14:35:25;;;;;;;4.50;3.60;;;9.80;66.40;;;;;;5054029;28;20248;-93
2021/11/18 14:37:58;;;;;;;4.43;3.55;;;9.80;66.90;;;;;;5052577;28;20194;-92
2021/11/18 14:40:41;;;;;;;5.43;3.55;;;9.80;66.70;;;;;;5025566;28;20301;-94
2021/11/18 14:43:27;;;;;;;3.78;3.42;;;9.80;65.30;;;;;;5047350;28;20193;-93
2021/11/18 14:55:29;;;;;;;5.32;3.40;;;9.70;65.40;;;;;;5024812;28;20217;-93
2021/11/18 14:58:00;;;;;;;5.00;3.45;;;9.50;66.20;;;;;;5043982;28;20213;-92
2021/11/18 15:00:31;;;;;;;3.80;3.20;;;9.30;69.00;;;;;;5047553;28;20588;-92
2021/11/18 15:03:08;;;;;;;6.30;3.17;;;9.40;70.00;;;;;;5054806;28;20193;-92
2021/11/18 15:05:36;;;;;;;3.13;2.83;;;9.50;69.70;;;;;;5049988;28;20228;-92
2021/11/18 15:08:03;;;;;;;4.47;2.88;;;9.40;70.60;;;;;;5050667;28;20194;-92
2021/11/18 15:10:30;;;;;;;7.25;3.53;;;9.50;70.30;;;;;;5048861;28;20593;-92
2021/11/18 15:12:58;;;;;;;3.90;3.15;;;9.60;70.30;;;;;;5051446;28;20549;-91
2021/11/18 15:18:27;;;;;;;10.68;3.65;;;9.40;71.20;;;;;;5047264;28;20202;-93
2021/11/18 15:20:56;;;;;;;5.10;4.15;;;9.10;73.60;;;;;;5048144;28;20450;-91
2021/11/18 15:23:25;;;;;;;6.60;4.35;;;8.80;73.80;;;;;;5048639;28;20288;-91
2021/11/18 15:25:52;;;;;;;6.20;4.30;;;8.50;78.30;;;;;;5044848;28;20275;-91
2021/11/18 15:28:21;;;;;;;6.40;4.03;;;8.40;80.20;;;;;;5041996;28;20202;-92
2021/11/18 15:30:53;;;;;;;7.05;4.13;;;8.30;83.30;;;;;;5047898;28;20562;-91
2021/11/18 15:33:26;;;;;;;6.85;4.72;;;8.50;83.00;;;;;;5037808;28;20573;-92
2021/11/18 15:35:54;;;;;;;4.75;3.40;;;8.60;81.70;;;;;;5055821;28;20202;-91
2021/11/18 15:38:23;;;;;;;4.13;3.40;;;8.50;82.70;;;;;;5048661;28;20293;-91
2021/11/18 15:40:52;;;;;;;3.88;3.47;;;8.50;82.80;;;;;;5056104;28;20198;-93
2021/11/18 15:43:29;;;;;;;5.90;3.95;;;8.60;82.80;;;;;;5054600;28;20516;-92
2021/11/18 15:45:56;;;;;;;4.75;4.05;;;8.50;82.70;;;;;;5057868;28;20211;-91
2021/11/18 15:48:25;;;;;;;6.38;4.93;;;8.40;82.60;;;;;;5053684;28;20263;-91
2021/11/18 15:50:55;;;;;;;5.90;4.68;;;8.20;84.10;;;;;;5058927;28;20233;-93
2021/11/18 15:53:26;;;;;;;6.32;3.83;;;8.10;85.80;;;;;;5068676;28;20206;-91
2021/11/18 15:55:56;;;;;;;7.00;4.10;;;8.10;88.70;;;;;;5060230;28;20216;-92
2021/11/18 16:01:15;;;;;;;6.30;5.20;;;8.20;85.50;;;;;;5054662;28;20214;-92
2021/11/18 16:06:26;;;;;;;6.72;4.55;;;8.00;86.90;;;;;;5055119;28;20755;-92
2021/11/18 16:08:56;;;;;;;6.10;4.80;;;8.10;89.40;;;;;;5045636;28;20222;-93
2021/11/18 16:14:12;;;;;;;6.10;4.68;;;8.30;87.80;;;;;;5051679;28;20300;-91
2021/11/18 16:16:40;;;;;;;7.85;4.57;;;8.20;87.20;;;;;;5057887;28;20201;-91
2021/11/18 16:19:08;;;;;;;9.77;5.05;;;8.20;87.90;;;;;;5056726;28;20279;-92
2021/11/18 16:21:56;;;;;;;7.40;5.10;;;8.00;87.00;;;;;;5055450;28;20265;-92
2021/11/18 16:24:44;;;;;;;6.07;5.05;;;7.70;89.80;;;;;;5048859;28;20226;-92
2021/11/18 16:27:11;;;;;;;6.45;4.95;;;7.50;90.10;;;;;;5056342;28;20206;-93
2021/11/18 16:29:41;;;;;;;8.07;5.25;;;7.40;90.10;;;;;;5054004;28;20228;-93
2021/11/18 16:32:10;;;;;;;5.05;4.32;;;7.30;90.50;;;;;;5053492;28;20780;-92
2021/11/18 16:37:48;;;;;;;6.13;4.45;;;7.50;91.30;;;;;;5050605;28;20198;-93
2021/11/18 16:40:22;;;;;;;5.88;4.90;;;7.80;90.40;;;;;;5051419;28;20603;-92
2021/11/18 16:48:32;;;;;;;7.43;4.70;;;7.50;91.20;;;;;;5051080;28;20300;-93